Pays
Station

 

Conditions  météo  pour  Whidbey Island, Naval Air Station  -  Etats-Unis    Etats-Unis

  
14 °C
    
 
 

METAR pour Whidbey Island, Naval Air Station :

KNUW 230256Z 29019G26KT 10SM SCT039 SCT075 BKN090 BKN250 14/09 A3000 RMK AO2 PK WND 30029/0159 SLP159 T01440089 53012 $

 

Voici le bulletin pour Whidbey Island, Naval Air Station - Etats-Unis.
 
Le bulletin a été fait il y a une heure et 27 minutes, à 02:56 UTC .
Le vent soufflait à la vitesse de 9.8 mètres par seconde avec des rafales jusqu'à 13.4 mètres par seconde de Ouest/Nord-ouest (290°).
 
La température était de 14 °C, avec un point de rosée à 9 °C.
La pression atmosphérique était de 1016 hPa.
L'humidité relative était de 71.8%.
 
Il y avait 3 à 4/8ème de nébulosité à une hauteur de 1189 mètres, 3 à 4/8ème de nébulosité à une hauteur de 2286 mètres et 5 à 7/8ème de nébulosité à une hauteur de 2743 mètres.
 
La visibilité globale était de 16.1 kilomètres.
 

 
 
 

Pays :   A   B   C   D   E   F   G   H   I   J   K   L   M   N   O   P   Q   R   S   T   U   V   W   Y   Z

 

Partenaires :  Info Météo avec Met'info
Météo Marine avec MeteoMarine.net
Infos Site  |  Infos Légales  |  Crédits  |  Confidentialité
Contactez-nous  |  Ajouter aux favoris
© 2013-2018 METAR - Tous droits réservés